createdAt,value
2019-05-22T00:00:42.705Z,7.42
2019-05-22T00:02:32.185Z,6.72
2019-05-22T00:04:23.709Z,5.67
2019-05-22T00:05:59.033Z,13.00
2019-05-22T00:07:35.285Z,8.85
2019-05-22T00:09:12.432Z,5.78
2019-05-22T00:10:50.309Z,6.83
2019-05-22T00:12:25.607Z,10.78
2019-05-22T00:14:00.735Z,9.55
2019-05-22T00:15:38.590Z,4.83
2019-05-22T00:17:16.045Z,5.87
2019-05-22T00:18:52.633Z,10.08
2019-05-22T00:20:30.570Z,6.62
2019-05-22T00:22:09.376Z,6.45
2019-05-22T00:23:46.345Z,4.62
2019-05-22T00:25:21.220Z,8.05
2019-05-22T00:26:56.633Z,11.75
2019-05-22T00:28:32.409Z,6.67
2019-05-22T00:30:09.901Z,8.28
2019-05-22T00:31:45.280Z,6.92
2019-05-22T00:33:20.617Z,9.90
2019-05-22T00:34:55.732Z,7.70
2019-05-22T00:36:32.069Z,8.80
2019-05-22T00:38:07.937Z,6.83
2019-05-22T00:39:43.329Z,9.45
2019-05-22T00:41:20.560Z,8.98
2019-05-22T00:43:04.250Z,6.72
2019-05-22T00:44:34.095Z,8.60
2019-05-22T00:46:11.076Z,5.60
2019-05-22T00:47:47.057Z,6.50
2019-05-22T00:49:24.316Z,6.33
2019-05-22T00:51:08.993Z,5.85
2019-05-22T00:53:04.687Z,4.83
2019-05-22T00:54:59.153Z,8.18
2019-05-22T00:56:35.051Z,5.80
2019-05-22T00:58:21.752Z,5.00
2019-05-22T00:59:57.574Z,5.25
2019-05-22T01:01:38.640Z,7.50
2019-05-22T01:03:16.196Z,7.35
2019-05-22T01:04:53.114Z,11.05
2019-05-22T01:06:30.555Z,10.85
2019-05-22T01:08:06.406Z,8.68
2019-05-22T01:09:44.861Z,11.15
2019-05-22T01:11:22.092Z,6.45
2019-05-22T01:13:01.441Z,6.40
2019-05-22T01:14:42.923Z,8.53
2019-05-22T01:16:15.256Z,9.45
2019-05-22T01:17:54.613Z,12.55
2019-05-22T01:19:31.000Z,9.23
2019-05-22T01:21:07.658Z,9.70
2019-05-22T01:22:43.130Z,7.85
2019-05-22T01:24:17.786Z,10.93
2019-05-22T01:25:52.816Z,6.37
2019-05-22T01:27:27.132Z,8.28
2019-05-22T01:29:03.425Z,10.93
2019-05-22T01:30:40.263Z,10.28
2019-05-22T01:32:20.632Z,7.55
2019-05-22T01:33:56.472Z,8.08
2019-05-22T01:35:33.466Z,8.03
2019-05-22T01:37:08.559Z,7.55
2019-05-22T01:38:45.895Z,6.45
2019-05-22T01:40:36.816Z,8.88
2019-05-22T01:42:15.278Z,6.83
2019-05-22T01:43:51.318Z,7.92
2019-05-22T01:45:25.888Z,4.20
2019-05-22T01:47:04.537Z,4.08
2019-05-22T01:48:43.661Z,6.83
2019-05-22T01:50:36.547Z,5.80
2019-05-22T01:52:13.478Z,5.78
2019-05-22T01:53:50.958Z,5.80
2019-05-22T01:55:27.009Z,6.90
2019-05-22T01:57:07.049Z,5.47
2019-05-22T01:58:45.540Z,4.60
2019-05-22T02:00:21.615Z,3.05
2019-05-22T02:01:58.252Z,9.58
2019-05-22T02:03:35.200Z,6.45
2019-05-22T02:05:11.084Z,4.10
2019-05-22T02:06:49.107Z,16.57
2019-05-22T02:08:26.565Z,4.97
2019-05-22T02:10:03.079Z,7.87
2019-05-22T02:11:40.746Z,5.15
2019-05-22T02:13:20.070Z,8.55
2019-05-22T02:14:56.245Z,5.28
2019-05-22T02:16:32.593Z,6.28
2019-05-22T02:18:11.057Z,5.05
2019-05-22T02:19:46.898Z,4.55
2019-05-22T02:21:23.773Z,6.53
2019-05-22T02:22:59.110Z,8.28
2019-05-22T02:24:35.127Z,11.05
2019-05-22T02:26:11.169Z,5.70
2019-05-22T02:27:47.424Z,10.98
2019-05-22T02:29:24.688Z,8.15
2019-05-22T02:30:59.508Z,7.50
2019-05-22T02:32:35.450Z,6.12
2019-05-22T02:34:10.747Z,6.70
2019-05-22T02:35:45.906Z,4.62
2019-05-22T02:37:20.749Z,5.75
2019-05-22T02:38:56.284Z,2.67
2019-05-22T02:40:35.365Z,4.55
2019-05-22T02:42:16.241Z,6.33
2019-05-22T02:43:52.002Z,6.25
2019-05-22T02:45:26.944Z,12.73
2019-05-22T02:47:17.874Z,5.53
2019-05-22T02:48:42.294Z,6.50
2019-05-22T02:50:17.523Z,6.75
2019-05-22T02:51:54.225Z,10.95
2019-05-22T02:53:29.468Z,7.85
2019-05-22T02:55:04.555Z,6.72
2019-05-22T02:56:39.321Z,10.20
2019-05-22T02:58:16.954Z,5.17
2019-05-22T02:59:51.718Z,5.95
2019-05-22T03:01:26.907Z,6.20
2019-05-22T03:03:02.165Z,7.22
2019-05-22T03:04:49.021Z,4.25
2019-05-22T03:06:24.485Z,9.80
2019-05-22T03:07:59.373Z,5.78
2019-05-22T03:09:34.273Z,4.92
2019-05-22T03:11:10.013Z,6.62
2019-05-22T03:12:46.151Z,6.42
2019-05-22T03:14:21.843Z,11.38
2019-05-22T03:15:58.373Z,3.22
2019-05-22T03:17:34.225Z,5.00
2019-05-22T03:19:09.532Z,9.65
2019-05-22T03:20:44.829Z,7.45
2019-05-22T03:22:34.776Z,7.92
2019-05-22T03:24:10.724Z,5.40
2019-05-22T03:25:45.796Z,6.35
2019-05-22T03:27:29.338Z,5.05
2019-05-22T03:29:04.104Z,7.45
2019-05-22T03:30:42.998Z,5.55
2019-05-22T03:32:17.861Z,4.65
2019-05-22T03:33:52.279Z,5.28
2019-05-22T03:35:31.041Z,5.35
2019-05-22T03:37:06.192Z,7.10
2019-05-22T03:38:42.426Z,5.92
2019-05-22T03:40:17.612Z,5.65
2019-05-22T03:41:55.309Z,5.78
2019-05-22T03:43:32.763Z,6.90
2019-05-22T03:45:10.704Z,4.92
2019-05-22T03:46:48.414Z,7.58
2019-05-22T03:48:24.894Z,3.60
2019-05-22T03:50:00.356Z,9.05
2019-05-22T03:51:36.381Z,5.80
2019-05-22T03:53:17.045Z,10.80
2019-05-22T03:54:53.112Z,4.47
2019-05-22T03:56:29.168Z,7.87
2019-05-22T03:58:06.021Z,13.10
2019-05-22T03:59:40.897Z,9.50
2019-05-22T04:01:16.239Z,20.43
2019-05-22T04:02:54.263Z,15.65
2019-05-22T04:04:36.728Z,12.00
2019-05-22T04:06:13.300Z,16.37
2019-05-22T04:07:49.172Z,11.48
2019-05-22T04:09:25.743Z,12.10
2019-05-22T04:11:03.772Z,12.23
2019-05-22T04:12:39.614Z,13.83
2019-05-22T04:14:13.869Z,10.58
2019-05-22T04:15:50.160Z,9.95
2019-05-22T04:17:26.663Z,10.55
2019-05-22T04:19:03.105Z,11.22
2019-05-22T04:20:37.414Z,9.23
2019-05-22T04:22:13.154Z,8.25
2019-05-22T04:23:47.773Z,6.60
2019-05-22T04:25:25.012Z,5.67
2019-05-22T04:27:01.190Z,6.92
2019-05-22T04:28:37.667Z,8.88
2019-05-22T04:30:13.788Z,5.17
2019-05-22T04:31:54.091Z,18.37
2019-05-22T04:33:30.936Z,11.35
2019-05-22T04:35:09.879Z,11.18
2019-05-22T04:36:44.779Z,18.05
2019-05-22T04:38:19.861Z,17.20
2019-05-22T04:39:56.599Z,15.75
2019-05-22T04:41:31.315Z,21.77
2019-05-22T04:43:07.500Z,25.82
2019-05-22T04:44:44.643Z,16.67
2019-05-22T04:46:19.878Z,13.40
2019-05-22T04:48:03.710Z,13.60
2019-05-22T04:49:39.213Z,15.38
2019-05-22T04:51:26.550Z,25.60
2019-05-22T04:53:01.866Z,16.07
2019-05-22T04:54:36.821Z,9.63
2019-05-22T04:56:11.681Z,8.98
2019-05-22T04:57:46.474Z,8.73
2019-05-22T04:59:21.714Z,14.60
2019-05-22T05:00:57.345Z,9.80
2019-05-22T05:02:32.777Z,7.97
2019-05-22T05:04:07.941Z,11.95
2019-05-22T05:05:44.056Z,15.15
2019-05-22T05:07:18.789Z,16.93
2019-05-22T05:08:53.561Z,10.95
2019-05-22T05:10:28.406Z,13.55
2019-05-22T05:12:03.910Z,18.67
2019-05-22T05:13:38.383Z,19.62
2019-05-22T05:15:13.761Z,16.20
2019-05-22T05:16:48.736Z,12.15
2019-05-22T05:18:23.959Z,16.27
2019-05-22T05:19:58.797Z,13.45
2019-05-22T05:21:34.140Z,17.55
2019-05-22T05:23:08.841Z,13.20
2019-05-22T05:24:43.372Z,13.05
2019-05-22T05:26:18.507Z,10.00
2019-05-22T05:27:53.312Z,15.72
2019-05-22T05:29:29.566Z,18.77
2019-05-22T05:31:04.448Z,10.60
2019-05-22T05:32:39.956Z,11.50
2019-05-22T05:34:35.039Z,8.25
2019-05-22T05:36:09.974Z,7.83
2019-05-22T05:37:44.900Z,10.68
2019-05-22T05:39:42.110Z,7.53
2019-05-22T05:41:17.141Z,9.60
2019-05-22T05:42:52.015Z,7.95
2019-05-22T05:44:27.559Z,10.38
2019-05-22T05:46:01.915Z,8.55
2019-05-22T05:47:38.037Z,12.98
2019-05-22T05:49:13.032Z,6.00
2019-05-22T05:51:05.001Z,9.35
2019-05-22T05:52:41.241Z,5.45
2019-05-22T05:54:16.240Z,8.05
2019-05-22T05:56:11.736Z,7.33
2019-05-22T05:57:51.697Z,3.87
2019-05-22T05:59:27.332Z,5.08
2019-05-22T06:01:11.820Z,4.83
2019-05-22T06:02:56.219Z,5.22
2019-05-22T06:04:35.464Z,5.30
2019-05-22T06:06:26.079Z,2.92
2019-05-22T06:08:02.100Z,2.95
2019-05-22T06:09:37.236Z,3.42
2019-05-22T06:11:34.546Z,1.80
2019-05-22T06:13:10.725Z,2.72
2019-05-22T06:14:45.979Z,4.15
2019-05-22T06:16:27.557Z,2.95
2019-05-22T06:18:29.260Z,3.65
2019-05-22T06:20:16.073Z,1.62
2019-05-22T06:21:52.662Z,5.90
2019-05-22T06:23:32.716Z,3.15
2019-05-22T06:25:09.191Z,2.15
2019-05-22T06:26:46.867Z,2.75
2019-05-22T06:28:22.397Z,4.22
2019-05-22T06:30:01.353Z,6.62
2019-05-22T06:31:47.824Z,2.15
2019-05-22T06:33:33.810Z,2.52
2019-05-22T06:35:10.603Z,1.90
2019-05-22T06:36:44.787Z,3.15
2019-05-22T06:38:30.873Z,4.55
2019-05-22T06:40:07.704Z,1.92
2019-05-22T06:41:44.130Z,6.08
2019-05-22T06:43:30.796Z,1.70
2019-05-22T06:45:06.877Z,4.28
2019-05-22T06:46:46.499Z,5.08
2019-05-22T06:48:21.021Z,6.25
2019-05-22T06:49:56.714Z,3.27
2019-05-22T06:51:32.025Z,3.25
2019-05-22T06:53:10.187Z,3.33
2019-05-22T06:54:44.244Z,3.12
2019-05-22T06:56:18.452Z,5.87
2019-05-22T06:57:53.410Z,2.85
2019-05-22T06:59:28.101Z,1.50
2019-05-22T07:01:03.237Z,5.65
2019-05-22T07:02:38.612Z,4.10
2019-05-22T07:04:14.155Z,6.03
2019-05-22T07:05:49.074Z,3.80
2019-05-22T07:07:25.412Z,1.75
2019-05-22T07:09:00.091Z,4.25
2019-05-22T07:10:36.820Z,2.83
2019-05-22T07:12:13.177Z,5.30
2019-05-22T07:13:48.809Z,3.58
2019-05-22T07:15:26.658Z,4.72
2019-05-22T07:17:02.480Z,3.20
2019-05-22T07:18:37.696Z,2.80
2019-05-22T07:20:13.729Z,4.33
2019-05-22T07:21:52.406Z,3.87
2019-05-22T07:23:28.656Z,3.33
2019-05-22T07:25:06.136Z,4.87
2019-05-22T07:26:42.069Z,2.08
2019-05-22T07:28:19.499Z,6.95
2019-05-22T07:29:56.954Z,4.80
2019-05-22T07:31:31.208Z,4.78
2019-05-22T07:33:07.253Z,5.70
2019-05-22T07:34:41.647Z,2.05
2019-05-22T07:36:18.253Z,5.10
2019-05-22T07:37:53.405Z,7.87
2019-05-22T07:39:28.187Z,14.58
2019-05-22T07:41:03.065Z,5.08
2019-05-22T07:42:38.554Z,8.50
2019-05-22T07:44:12.966Z,9.23
2019-05-22T07:45:47.953Z,6.40
2019-05-22T07:47:24.531Z,2.90
2019-05-22T07:49:00.325Z,2.85
2019-05-22T07:50:36.268Z,3.02
2019-05-22T07:52:11.479Z,2.67
2019-05-22T07:53:47.410Z,3.70
2019-05-22T07:57:00.388Z,3.10
2019-05-22T07:58:35.822Z,1.32
2019-05-22T08:00:10.924Z,2.62
2019-05-22T08:01:45.673Z,0.93
2019-05-22T08:03:21.923Z,2.87
2019-05-22T08:04:57.151Z,0.60
2019-05-22T08:06:31.916Z,0.57
2019-05-22T08:08:06.682Z,2.22
2019-05-22T08:09:41.426Z,1.85
2019-05-22T08:11:17.456Z,2.55
2019-05-22T08:12:51.996Z,4.95
2019-05-22T08:14:29.123Z,1.98
2019-05-22T08:16:03.842Z,3.65
2019-05-22T08:17:38.706Z,2.10
2019-05-22T08:19:13.459Z,2.52
2019-05-22T08:20:48.992Z,2.40
2019-05-22T08:22:24.118Z,1.95
2019-05-22T08:23:59.263Z,2.37
2019-05-22T08:25:34.309Z,1.17
2019-05-22T08:27:09.150Z,1.50
2019-05-22T08:28:44.726Z,2.02
2019-05-22T08:30:20.094Z,2.25
2019-05-22T08:31:54.758Z,1.98
2019-05-22T08:33:29.949Z,2.40
2019-05-22T08:35:06.970Z,2.15
2019-05-22T08:36:41.906Z,2.45
2019-05-22T08:38:17.420Z,2.27
2019-05-22T08:39:54.946Z,1.85
2019-05-22T08:41:32.015Z,2.45
2019-05-22T08:43:07.980Z,1.40
2019-05-22T08:44:43.753Z,2.55
2019-05-22T08:46:18.711Z,1.70
2019-05-22T08:47:53.670Z,1.60
2019-05-22T08:49:28.925Z,0.45
2019-05-22T08:51:04.975Z,1.55
2019-05-22T08:52:41.462Z,4.40
2019-05-22T08:54:16.955Z,5.17
2019-05-22T08:55:52.886Z,1.90
2019-05-22T08:57:30.169Z,1.70
2019-05-22T08:59:19.046Z,7.92
2019-05-22T09:00:42.790Z,2.80
2019-05-22T09:02:18.110Z,0.70
2019-05-22T09:03:52.410Z,1.82
2019-05-22T09:05:28.337Z,1.47
2019-05-22T09:07:03.013Z,0.93
2019-05-22T09:08:41.260Z,5.45
2019-05-22T09:10:17.845Z,1.35
2019-05-22T09:11:54.114Z,2.20
2019-05-22T09:13:29.057Z,2.60
2019-05-22T09:15:04.387Z,1.50
2019-05-22T09:16:39.862Z,0.40
2019-05-22T09:18:15.671Z,0.40
2019-05-22T09:19:50.681Z,0.70
2019-05-22T09:21:25.636Z,0.25
2019-05-22T09:23:02.051Z,1.98
2019-05-22T09:24:40.097Z,0.65
2019-05-22T09:26:18.400Z,2.15
2019-05-22T09:27:53.262Z,0.95
2019-05-22T09:29:28.506Z,0.80
2019-05-22T09:31:04.196Z,2.27
2019-05-22T09:32:38.387Z,0.57
2019-05-22T09:34:13.578Z,4.08
2019-05-22T09:35:48.588Z,1.75
2019-05-22T09:37:23.692Z,3.52
2019-05-22T09:38:57.899Z,6.08
2019-05-22T09:40:33.568Z,0.75
2019-05-22T09:42:07.849Z,1.65
2019-05-22T09:43:42.889Z,0.85
2019-05-22T09:45:18.400Z,0.88
2019-05-22T09:46:53.347Z,3.10
2019-05-22T09:48:27.772Z,3.10
2019-05-22T09:50:06.778Z,3.50
2019-05-22T09:51:41.459Z,3.65
2019-05-22T09:53:17.337Z,0.93
2019-05-22T09:54:52.825Z,1.35
2019-05-22T09:56:29.766Z,1.95
2019-05-22T09:58:05.846Z,2.25
2019-05-22T09:59:40.613Z,1.65
2019-05-22T10:01:15.585Z,2.15
2019-05-22T10:02:55.446Z,0.68
2019-05-22T10:04:33.122Z,5.87
2019-05-22T10:06:08.813Z,1.75
2019-05-22T10:07:58.120Z,0.62
2019-05-22T10:09:20.512Z,1.20
2019-05-22T10:10:55.290Z,0.88
2019-05-22T10:12:32.585Z,1.52
2019-05-22T10:14:08.864Z,1.27
2019-05-22T10:15:44.320Z,1.05
2019-05-22T10:17:19.012Z,4.28
2019-05-22T10:18:53.830Z,1.77
2019-05-22T10:20:28.650Z,2.62
2019-05-22T10:22:04.732Z,1.02
2019-05-22T10:23:39.304Z,2.37
2019-05-22T10:25:16.670Z,2.80
2019-05-22T10:26:50.234Z,3.33
2019-05-22T10:28:25.785Z,2.30
2019-05-22T10:30:00.341Z,1.30
2019-05-22T10:31:35.174Z,3.90
2019-05-22T10:33:10.171Z,2.62
2019-05-22T10:34:45.138Z,0.60
2019-05-22T10:36:20.448Z,3.37
2019-05-22T10:37:56.586Z,2.70
2019-05-22T10:39:30.862Z,2.17
2019-05-22T10:41:06.501Z,0.72
2019-05-22T10:42:44.739Z,0.60
2019-05-22T10:44:18.349Z,0.80
2019-05-22T10:45:52.618Z,1.45
2019-05-22T10:47:28.172Z,1.80
2019-05-22T10:49:02.793Z,2.70
2019-05-22T10:50:38.121Z,5.28
2019-05-22T10:52:12.900Z,1.05
2019-05-22T10:53:48.781Z,2.33
2019-05-22T10:55:23.481Z,0.40
2019-05-22T10:56:58.341Z,1.70
2019-05-22T10:58:32.560Z,2.10
2019-05-22T11:00:10.819Z,0.68
2019-05-22T11:01:45.217Z,3.15
2019-05-22T11:03:22.810Z,1.20
2019-05-22T11:04:57.510Z,0.75
2019-05-22T11:06:33.773Z,1.50
2019-05-22T11:08:08.496Z,1.32
2019-05-22T11:09:44.780Z,3.05
2019-05-22T11:11:18.926Z,1.02
2019-05-22T11:12:54.990Z,2.80
2019-05-22T11:14:29.321Z,4.92
2019-05-22T11:16:04.771Z,1.42
2019-05-22T11:17:40.034Z,5.65
2019-05-22T11:19:16.093Z,0.90
2019-05-22T11:20:50.392Z,1.17
2019-05-22T11:22:26.158Z,3.92
2019-05-22T11:24:02.752Z,0.95
2019-05-22T11:25:39.168Z,2.37
2019-05-22T11:27:13.844Z,2.77
2019-05-22T11:28:49.299Z,1.40
2019-05-22T11:30:25.342Z,0.47
2019-05-22T11:32:00.387Z,1.20
2019-05-22T11:33:34.770Z,1.02
2019-05-22T11:35:10.904Z,3.33
2019-05-22T11:36:45.188Z,1.30
2019-05-22T11:38:20.418Z,1.20
2019-05-22T11:39:55.116Z,0.75
2019-05-22T11:41:29.921Z,0.78
2019-05-22T11:43:05.995Z,2.55
2019-05-22T11:46:34.561Z,1.20
2019-05-22T11:48:09.575Z,2.72
2019-05-22T11:49:44.347Z,1.17
2019-05-22T11:51:20.929Z,0.85
2019-05-22T11:52:56.025Z,2.47
2019-05-22T11:54:30.828Z,1.62
2019-05-22T11:56:05.672Z,1.95
2019-05-22T11:57:42.460Z,0.30
2019-05-22T11:59:16.841Z,1.00
2019-05-22T12:00:51.998Z,0.35
2019-05-22T12:02:26.617Z,0.95
2019-05-22T12:04:04.877Z,1.87
2019-05-22T12:05:40.350Z,2.33
2019-05-22T12:07:15.603Z,0.55
2019-05-22T12:08:50.695Z,0.78
2019-05-22T12:10:26.269Z,0.40
2019-05-22T12:12:00.977Z,1.85
2019-05-22T12:13:36.518Z,0.50
2019-05-22T12:15:13.371Z,1.37
2019-05-22T12:16:53.182Z,1.17
2019-05-22T12:18:29.496Z,0.88
2019-05-22T12:20:10.266Z,0.85
2019-05-22T12:21:45.944Z,1.65
2019-05-22T12:23:22.568Z,2.45
2019-05-22T12:24:56.887Z,4.22
2019-05-22T12:26:32.115Z,0.80
2019-05-22T12:28:07.099Z,1.17
2019-05-22T12:29:44.244Z,2.67
2019-05-22T12:31:20.378Z,0.57
2019-05-22T12:32:56.530Z,3.83
2019-05-22T12:34:30.789Z,2.05
2019-05-22T12:36:07.491Z,0.70
2019-05-22T12:37:41.863Z,0.82
2019-05-22T12:39:18.602Z,0.95
2019-05-22T12:40:53.385Z,3.75
2019-05-22T12:42:30.731Z,6.08
2019-05-22T12:44:05.495Z,0.50
2019-05-22T12:45:40.629Z,1.60
2019-05-22T12:47:15.708Z,1.52
2019-05-22T12:48:51.092Z,1.50
2019-05-22T12:50:29.229Z,2.00
2019-05-22T12:52:05.074Z,1.27
2019-05-22T12:53:41.017Z,1.85
2019-05-22T12:55:17.196Z,1.92
2019-05-22T12:56:51.870Z,3.62
2019-05-22T12:58:26.696Z,1.27
2019-05-22T13:00:02.841Z,2.87
2019-05-22T13:01:39.822Z,1.67
2019-05-22T13:03:15.742Z,1.87
2019-05-22T13:04:51.219Z,0.60
2019-05-22T13:06:25.567Z,1.30
2019-05-22T13:08:00.641Z,0.88
2019-05-22T13:09:34.912Z,2.08
2019-05-22T13:11:10.879Z,2.35
2019-05-22T13:12:45.623Z,2.52
2019-05-22T13:14:20.958Z,1.72
2019-05-22T13:15:56.059Z,1.70
2019-05-22T13:17:33.657Z,1.22
2019-05-22T13:19:08.701Z,1.20
2019-05-22T13:20:48.249Z,0.40
2019-05-22T13:22:26.458Z,0.68
2019-05-22T13:24:03.814Z,0.57
2019-05-22T13:25:39.868Z,0.42
2019-05-22T13:27:17.696Z,1.65
2019-05-22T13:28:55.333Z,0.55
2019-05-22T13:30:31.110Z,0.30
2019-05-22T13:32:08.119Z,2.50
2019-05-22T13:33:45.058Z,2.58
2019-05-22T13:35:20.971Z,1.65
2019-05-22T13:36:57.101Z,1.10
2019-05-22T13:38:32.027Z,1.47
2019-05-22T13:40:26.126Z,0.40
2019-05-22T13:41:45.373Z,1.65
2019-05-22T13:43:23.008Z,1.87
2019-05-22T13:44:58.522Z,3.77
2019-05-22T13:46:34.126Z,1.15
2019-05-22T13:48:09.314Z,3.62
2019-05-22T13:49:45.640Z,3.75
2019-05-22T13:51:20.340Z,0.62
2019-05-22T13:52:57.049Z,1.17
2019-05-22T13:54:32.163Z,4.62
2019-05-22T13:56:08.273Z,1.95
2019-05-22T13:57:44.754Z,0.40
2019-05-22T13:59:21.365Z,3.08
2019-05-22T14:00:55.943Z,2.05
2019-05-22T14:02:32.570Z,1.77
2019-05-22T14:04:06.865Z,0.65
2019-05-22T14:05:42.710Z,0.93
2019-05-22T14:07:18.793Z,1.55
2019-05-22T14:08:53.556Z,2.90
2019-05-22T14:10:29.731Z,3.02
2019-05-22T14:12:06.497Z,1.37
2019-05-22T14:13:41.049Z,1.17
2019-05-22T14:15:17.098Z,0.82
2019-05-22T14:16:51.700Z,4.65
2019-05-22T14:18:26.936Z,1.75
2019-05-22T14:20:01.636Z,1.98
2019-05-22T14:21:36.388Z,2.85
2019-05-22T14:23:10.694Z,2.83
2019-05-22T14:24:45.908Z,0.90
2019-05-22T14:26:20.113Z,0.88
2019-05-22T14:27:55.340Z,1.00
2019-05-22T14:29:30.309Z,1.35
2019-05-22T14:31:06.754Z,1.35
2019-05-22T14:32:41.316Z,2.83
2019-05-22T14:34:16.472Z,2.65
2019-05-22T14:35:52.653Z,1.87
2019-05-22T14:37:27.765Z,1.40
2019-05-22T14:39:04.044Z,1.12
2019-05-22T14:40:39.202Z,3.37
2019-05-22T14:42:13.977Z,8.03
2019-05-22T14:43:49.221Z,6.50
2019-05-22T14:45:24.112Z,5.05
2019-05-22T14:47:12.362Z,3.08
2019-05-22T14:48:35.011Z,1.07
2019-05-22T14:50:11.705Z,2.65
2019-05-22T14:51:46.401Z,1.10
2019-05-22T14:53:21.561Z,0.72
2019-05-22T14:54:55.969Z,2.02
2019-05-22T14:56:32.135Z,1.57
2019-05-22T14:58:06.970Z,0.53
2019-05-22T14:59:41.750Z,4.05
2019-05-22T15:01:17.122Z,2.60
2019-05-22T15:02:56.488Z,1.32
2019-05-22T15:04:29.924Z,0.45
2019-05-22T15:06:05.185Z,1.57
2019-05-22T15:07:40.160Z,4.60
2019-05-22T15:09:15.110Z,3.12
2019-05-22T15:10:49.952Z,1.98
2019-05-22T15:12:25.218Z,1.00
2019-05-22T15:13:59.421Z,0.85
2019-05-22T15:15:34.826Z,8.48
2019-05-22T15:17:09.696Z,8.75
2019-05-22T15:18:44.471Z,3.40
2019-05-22T15:20:23.233Z,0.98
2019-05-22T15:21:58.474Z,1.82
2019-05-22T15:23:34.038Z,0.65
2019-05-22T15:25:10.077Z,3.27
2019-05-22T15:26:44.755Z,3.22
2019-05-22T15:28:20.843Z,2.67
2019-05-22T15:29:55.809Z,0.88
2019-05-22T15:31:30.736Z,0.50
2019-05-22T15:33:05.546Z,0.45
2019-05-22T15:34:40.944Z,2.58
2019-05-22T15:36:19.001Z,1.52
2019-05-22T15:37:55.920Z,1.05
2019-05-22T15:39:33.128Z,0.70
2019-05-22T15:41:10.793Z,1.45
2019-05-22T15:42:46.069Z,1.52
2019-05-22T15:44:21.549Z,1.02
2019-05-22T15:45:57.148Z,0.80
2019-05-22T15:47:52.226Z,0.80
2019-05-22T15:49:12.840Z,2.58
2019-05-22T15:50:50.922Z,5.60
2019-05-22T15:52:29.375Z,1.77
2019-05-22T15:54:06.471Z,0.55
2019-05-22T15:55:44.182Z,4.53
2019-05-22T15:57:21.169Z,3.05
2019-05-22T15:58:56.385Z,2.05
2019-05-22T16:00:35.725Z,2.62
2019-05-22T16:02:11.056Z,1.20
2019-05-22T16:03:47.612Z,0.50
2019-05-22T16:05:23.535Z,0.75
2019-05-22T16:07:01.129Z,1.60
2019-05-22T16:08:35.493Z,0.88
2019-05-22T16:10:12.789Z,0.95
2019-05-22T16:11:50.537Z,2.10
2019-05-22T16:13:27.892Z,0.55
2019-05-22T16:15:03.170Z,0.68
2019-05-22T16:16:38.688Z,1.00
2019-05-22T16:18:14.874Z,3.33
2019-05-22T16:19:52.008Z,1.00
2019-05-22T16:21:28.411Z,1.00
2019-05-22T16:23:04.853Z,1.02
2019-05-22T16:24:41.208Z,1.62
2019-05-22T16:26:18.380Z,2.90
2019-05-22T16:27:53.688Z,4.22
2019-05-22T16:29:29.558Z,1.67
2019-05-22T16:31:06.041Z,2.12
2019-05-22T16:32:41.854Z,1.20
2019-05-22T16:34:17.659Z,2.98
2019-05-22T16:35:52.625Z,2.50
2019-05-22T16:37:27.168Z,2.72
2019-05-22T16:39:02.645Z,2.80
2019-05-22T16:40:37.729Z,1.37
2019-05-22T16:42:12.888Z,2.00
2019-05-22T16:43:50.208Z,6.78
2019-05-22T16:45:26.789Z,3.95
2019-05-22T16:47:02.112Z,7.00
2019-05-22T16:48:38.649Z,4.75
2019-05-22T16:50:13.329Z,5.75
2019-05-22T16:51:49.785Z,6.17
2019-05-22T16:53:26.571Z,4.60
2019-05-22T16:55:03.224Z,4.97
2019-05-22T16:56:39.498Z,3.08
2019-05-22T16:58:15.097Z,7.35
2019-05-22T16:59:50.377Z,5.03
2019-05-22T17:01:27.321Z,10.72
2019-05-22T17:03:02.650Z,11.15
2019-05-22T17:04:38.281Z,3.33
2019-05-22T17:06:12.516Z,2.35
2019-05-22T17:07:48.257Z,2.85
2019-05-22T17:09:23.035Z,2.27
2019-05-22T17:11:01.675Z,2.10
2019-05-22T17:12:37.352Z,1.47
2019-05-22T17:14:13.788Z,2.87
2019-05-22T17:15:48.100Z,3.60
2019-05-22T17:17:23.413Z,7.33
2019-05-22T17:18:58.900Z,4.45
2019-05-22T17:20:34.633Z,1.25
2019-05-22T17:22:09.744Z,2.75
2019-05-22T17:23:46.288Z,1.27
2019-05-22T17:25:21.003Z,3.98
2019-05-22T17:26:57.060Z,1.67
2019-05-22T17:28:31.307Z,6.47
2019-05-22T17:30:09.666Z,3.83
2019-05-22T17:31:44.484Z,1.80
2019-05-22T17:33:20.248Z,2.67
2019-05-22T17:34:54.489Z,0.82
2019-05-22T17:36:31.651Z,2.55
2019-05-22T17:38:08.821Z,4.22
2019-05-22T17:39:47.256Z,4.85
2019-05-22T17:41:22.665Z,2.12
2019-05-22T17:42:58.411Z,3.35
2019-05-22T17:44:33.707Z,2.62
2019-05-22T17:46:08.770Z,1.90
2019-05-22T17:47:44.184Z,1.67
2019-05-22T17:49:21.382Z,4.97
2019-05-22T17:50:56.530Z,3.95
2019-05-22T17:52:32.428Z,3.67
2019-05-22T17:54:06.976Z,2.00
2019-05-22T17:55:43.027Z,4.00
2019-05-22T17:57:18.075Z,3.65
2019-05-22T17:58:52.917Z,3.65
2019-05-22T18:00:34.597Z,0.90
2019-05-22T18:02:11.130Z,0.90
2019-05-22T18:03:45.661Z,3.05
2019-05-22T18:05:21.163Z,3.77
2019-05-22T18:06:55.375Z,5.20
2019-05-22T18:08:30.423Z,0.98
2019-05-22T18:10:09.423Z,2.37
2019-05-22T18:11:44.559Z,3.20
2019-05-22T18:13:19.372Z,3.60
2019-05-22T18:14:55.731Z,1.22
2019-05-22T18:16:31.237Z,3.35
2019-05-22T18:18:07.653Z,7.10
2019-05-22T18:19:43.551Z,1.37
2019-05-22T18:21:20.370Z,1.17
2019-05-22T18:22:55.056Z,3.17
2019-05-22T18:24:29.995Z,7.67
2019-05-22T18:26:06.273Z,8.15
2019-05-22T18:27:44.065Z,4.67
2019-05-22T18:29:18.375Z,4.58
2019-05-22T18:30:53.830Z,3.50
2019-05-22T18:32:31.449Z,7.37
2019-05-22T18:34:04.994Z,4.67
2019-05-22T18:35:41.126Z,3.85
2019-05-22T18:37:16.804Z,11.48
2019-05-22T18:38:51.016Z,9.90
2019-05-22T18:40:26.136Z,14.53
2019-05-22T18:42:00.379Z,7.67
2019-05-22T18:43:37.184Z,11.28
2019-05-22T18:45:11.886Z,13.70
2019-05-22T18:46:47.164Z,21.52
2019-05-22T18:48:23.360Z,22.30
2019-05-22T18:50:00.268Z,17.87
2019-05-22T18:51:34.540Z,15.25
2019-05-22T18:53:11.266Z,11.55
2019-05-22T18:54:45.553Z,14.25
2019-05-22T18:56:21.394Z,9.18
2019-05-22T18:57:55.606Z,6.53
2019-05-22T18:59:30.801Z,8.20
2019-05-22T19:01:05.824Z,8.40
2019-05-22T19:02:40.787Z,6.78
2019-05-22T19:04:14.999Z,8.15
2019-05-22T19:05:51.094Z,9.88
2019-05-22T19:07:25.352Z,7.87
2019-05-22T19:09:00.212Z,6.15
2019-05-22T19:10:35.748Z,7.45
2019-05-22T19:12:11.294Z,9.28
2019-05-22T19:13:45.550Z,10.23
2019-05-22T19:15:23.954Z,9.60
2019-05-22T19:16:58.734Z,13.60
2019-05-22T19:18:33.858Z,10.55
2019-05-22T19:20:08.378Z,12.45
2019-05-22T19:21:43.158Z,6.92
2019-05-22T19:23:17.748Z,12.00
2019-05-22T19:24:54.482Z,4.55
2019-05-22T19:26:29.028Z,9.25
2019-05-22T19:28:03.813Z,10.35
2019-05-22T19:29:38.192Z,8.65
2019-05-22T19:31:13.573Z,5.62
2019-05-22T19:32:48.857Z,6.50
2019-05-22T19:34:24.413Z,8.48
2019-05-22T19:35:58.742Z,4.45
2019-05-22T19:37:35.322Z,3.42
2019-05-22T19:39:10.431Z,8.93
2019-05-22T19:40:45.094Z,6.92
2019-05-22T19:42:21.466Z,7.10
2019-05-22T19:43:56.566Z,5.72
2019-05-22T19:45:31.744Z,7.00
2019-05-22T19:47:08.391Z,7.47
2019-05-22T19:48:42.720Z,9.13
2019-05-22T19:50:23.340Z,17.15
2019-05-22T19:51:58.109Z,6.28
2019-05-22T19:53:34.237Z,8.93
2019-05-22T19:55:10.301Z,13.00
2019-05-22T19:56:45.598Z,8.08
2019-05-22T19:58:22.058Z,10.25
2019-05-22T19:59:57.913Z,9.40
2019-05-22T20:01:33.338Z,7.08
2019-05-22T20:03:08.564Z,3.92
2019-05-22T20:04:42.791Z,5.22
2019-05-22T20:06:18.547Z,8.53
2019-05-22T20:07:53.367Z,7.62
2019-05-22T20:09:28.893Z,9.48
2019-05-22T20:11:04.659Z,4.10
2019-05-22T20:12:40.412Z,7.95
2019-05-22T20:14:16.132Z,5.15
2019-05-22T20:15:52.573Z,9.48
2019-05-22T20:17:27.953Z,4.47
2019-05-22T20:19:03.807Z,8.65
2019-05-22T20:20:38.794Z,16.27
2019-05-22T20:22:16.196Z,6.67
2019-05-22T20:23:51.056Z,10.63
2019-05-22T20:25:26.309Z,7.03
2019-05-22T20:27:01.129Z,9.05
2019-05-22T20:28:38.631Z,9.85
2019-05-22T20:30:14.973Z,13.70
2019-05-22T20:31:50.339Z,10.88
2019-05-22T20:33:26.943Z,7.85
2019-05-22T20:35:02.531Z,5.65
2019-05-22T20:36:37.804Z,7.70
2019-05-22T20:38:12.587Z,7.00
2019-05-22T20:39:47.396Z,13.88
2019-05-22T20:41:23.092Z,4.12
2019-05-22T20:42:59.753Z,6.83
2019-05-22T20:44:35.591Z,5.95
2019-05-22T20:46:09.836Z,6.37
2019-05-22T20:47:46.969Z,4.90
2019-05-22T20:49:21.544Z,2.35
2019-05-22T20:51:00.380Z,3.83
2019-05-22T20:52:35.718Z,6.75
2019-05-22T20:54:12.597Z,8.25
2019-05-22T20:55:49.069Z,3.95
2019-05-22T20:57:25.317Z,6.25
2019-05-22T20:59:01.344Z,5.83
2019-05-22T21:00:37.211Z,5.35
2019-05-22T21:02:14.288Z,5.58
2019-05-22T21:03:50.542Z,5.70
2019-05-22T21:05:25.769Z,12.60
2019-05-22T21:07:04.284Z,8.48
2019-05-22T21:08:40.264Z,4.90
2019-05-22T21:10:15.453Z,8.58
2019-05-22T21:11:50.404Z,9.10
2019-05-22T21:13:27.301Z,10.43
2019-05-22T21:15:02.151Z,6.20
2019-05-22T21:16:37.428Z,7.75
2019-05-22T21:18:12.946Z,6.45
2019-05-22T21:19:48.018Z,6.85
2019-05-22T21:21:25.769Z,7.78